sensor_id;sensor_type;location;lat;lon;timestamp;pressure;altitude;pressure_sealevel;temperature;humidity
69402;BME280;56589;51.992;5.924;2023-04-28T00:00:42;100854.84;;;8.94;44.83
69402;BME280;56589;51.992;5.924;2023-04-28T00:03:12;100854.78;;;8.95;44.95
69402;BME280;56589;51.992;5.924;2023-04-28T00:05:38;100836.50;;;8.94;45.34
69402;BME280;56589;51.992;5.924;2023-04-28T00:08:04;100835.00;;;8.90;45.13
69402;BME280;56589;51.992;5.924;2023-04-28T00:10:30;100831.63;;;8.88;45.38
69402;BME280;56589;51.992;5.924;2023-04-28T00:12:55;100834.34;;;8.86;45.05
69402;BME280;56589;51.992;5.924;2023-04-28T00:15:22;100835.25;;;8.85;45.10
69402;BME280;56589;51.992;5.924;2023-04-28T00:17:48;100844.91;;;8.85;45.42
69402;BME280;56589;51.992;5.924;2023-04-28T00:20:16;100839.91;;;8.80;45.50
69402;BME280;56589;51.992;5.924;2023-04-28T00:22:42;100840.75;;;8.81;45.36
69402;BME280;56589;51.992;5.924;2023-04-28T00:25:08;100820.66;;;8.81;45.49
69402;BME280;56589;51.992;5.924;2023-04-28T00:27:35;100817.13;;;8.82;45.23
69402;BME280;56589;51.992;5.924;2023-04-28T00:30:01;100816.25;;;8.82;45.58
69402;BME280;56589;51.992;5.924;2023-04-28T00:32:27;100816.44;;;8.79;45.61
69402;BME280;56589;51.992;5.924;2023-04-28T00:34:53;100814.91;;;8.75;45.24
69402;BME280;56589;51.992;5.924;2023-04-28T00:37:22;100820.25;;;8.73;45.38
69402;BME280;56589;51.992;5.924;2023-04-28T00:39:48;100809.88;;;8.72;45.73
69402;BME280;56589;51.992;5.924;2023-04-28T00:42:19;100803.00;;;8.69;45.65
69402;BME280;56589;51.992;5.924;2023-04-28T00:44:45;100799.56;;;8.68;45.59
69402;BME280;56589;51.992;5.924;2023-04-28T00:47:10;100804.88;;;8.67;45.97
69402;BME280;56589;51.992;5.924;2023-04-28T00:49:36;100805.13;;;8.62;45.90
69402;BME280;56589;51.992;5.924;2023-04-28T00:52:06;100788.59;;;8.62;45.99
69402;BME280;56589;51.992;5.924;2023-04-28T00:54:34;100779.06;;;8.61;46.07
69402;BME280;56589;51.992;5.924;2023-04-28T00:57:01;100780.91;;;8.59;46.17
69402;BME280;56589;51.992;5.924;2023-04-28T00:59:27;100778.47;;;8.56;46.29
69402;BME280;56589;51.992;5.924;2023-04-28T01:01:53;100767.41;;;8.51;46.27
69402;BME280;56589;51.992;5.924;2023-04-28T01:04:20;100761.31;;;8.50;46.11
69402;BME280;56589;51.992;5.924;2023-04-28T01:06:46;100762.25;;;8.49;46.02
69402;BME280;56589;51.992;5.924;2023-04-28T01:09:12;100760.56;;;8.48;46.53
69402;BME280;56589;51.992;5.924;2023-04-28T01:11:40;100757.03;;;8.49;46.39
69402;BME280;56589;51.992;5.924;2023-04-28T01:14:06;100763.09;;;8.50;46.58
69402;BME280;56589;51.992;5.924;2023-04-28T01:16:33;100761.66;;;8.44;46.86
69402;BME280;56589;51.992;5.924;2023-04-28T01:19:00;100767.09;;;8.41;47.33
69402;BME280;56589;51.992;5.924;2023-04-28T01:21:26;100756.44;;;8.28;47.50
69402;BME280;56589;51.992;5.924;2023-04-28T01:23:55;100762.09;;;8.21;48.49
69402;BME280;56589;51.992;5.924;2023-04-28T01:26:21;100763.34;;;8.13;48.46
69402;BME280;56589;51.992;5.924;2023-04-28T01:28:46;100762.19;;;8.03;48.88
69402;BME280;56589;51.992;5.924;2023-04-28T01:31:12;100751.59;;;7.89;49.89
69402;BME280;56589;51.992;5.924;2023-04-28T01:33:38;100760.25;;;7.74;50.37
69402;BME280;56589;51.992;5.924;2023-04-28T01:36:05;100763.34;;;7.65;50.91
69402;BME280;56589;51.992;5.924;2023-04-28T01:38:31;100764.50;;;7.59;51.45
69402;BME280;56589;51.992;5.924;2023-04-28T01:40:59;100756.00;;;7.55;51.89
69402;BME280;56589;51.992;5.924;2023-04-28T01:43:25;100755.25;;;7.53;52.39
69402;BME280;56589;51.992;5.924;2023-04-28T01:45:51;100755.38;;;7.50;52.23
69402;BME280;56589;51.992;5.924;2023-04-28T01:48:17;100740.78;;;7.46;52.51
69402;BME280;56589;51.992;5.924;2023-04-28T01:50:43;100745.25;;;7.44;52.60
69402;BME280;56589;51.992;5.924;2023-04-28T01:53:08;100743.66;;;7.42;53.27
69402;BME280;56589;51.992;5.924;2023-04-28T01:55:34;100741.88;;;7.42;52.93
69402;BME280;56589;51.992;5.924;2023-04-28T01:58:02;100742.56;;;7.46;53.34
69402;BME280;56589;51.992;5.924;2023-04-28T02:00:28;100738.13;;;7.48;52.78
69402;BME280;56589;51.992;5.924;2023-04-28T02:02:54;100737.09;;;7.50;52.94
69402;BME280;56589;51.992;5.924;2023-04-28T02:05:20;100738.63;;;7.54;52.99
69402;BME280;56589;51.992;5.924;2023-04-28T02:07:46;100728.84;;;7.58;52.88
69402;BME280;56589;51.992;5.924;2023-04-28T02:10:13;100720.09;;;7.59;52.95
69402;BME280;56589;51.992;5.924;2023-04-28T02:12:38;100720.88;;;7.61;52.92
69402;BME280;56589;51.992;5.924;2023-04-28T02:15:08;100717.22;;;7.64;52.85
69402;BME280;56589;51.992;5.924;2023-04-28T02:17:34;100722.38;;;7.65;52.83
69402;BME280;56589;51.992;5.924;2023-04-28T02:20:00;100724.94;;;7.67;53.20
69402;BME280;56589;51.992;5.924;2023-04-28T02:22:26;100724.00;;;7.68;52.84
69402;BME280;56589;51.992;5.924;2023-04-28T02:24:52;100712.53;;;7.70;52.94
69402;BME280;56589;51.992;5.924;2023-04-28T02:27:17;100708.22;;;7.69;52.56
69402;BME280;56589;51.992;5.924;2023-04-28T02:29:43;100706.47;;;7.70;52.87
69402;BME280;56589;51.992;5.924;2023-04-28T02:32:12;100710.59;;;7.74;53.13
69402;BME280;56589;51.992;5.924;2023-04-28T02:34:38;100704.34;;;7.76;52.80
69402;BME280;56589;51.992;5.924;2023-04-28T02:37:03;100700.06;;;7.75;53.08
69402;BME280;56589;51.992;5.924;2023-04-28T02:39:29;100694.94;;;7.74;52.85
69402;BME280;56589;51.992;5.924;2023-04-28T02:41:55;100697.44;;;7.75;52.78
69402;BME280;56589;51.992;5.924;2023-04-28T02:44:21;100692.13;;;7.77;52.70
69402;BME280;56589;51.992;5.924;2023-04-28T02:46:48;100688.69;;;7.76;52.66
69402;BME280;56589;51.992;5.924;2023-04-28T02:49:16;100687.84;;;7.76;53.19
69402;BME280;56589;51.992;5.924;2023-04-28T02:51:42;100688.69;;;7.76;52.85
69402;BME280;56589;51.992;5.924;2023-04-28T02:54:08;100681.63;;;7.78;52.97
69402;BME280;56589;51.992;5.924;2023-04-28T02:56:34;100681.53;;;7.80;52.63
69402;BME280;56589;51.992;5.924;2023-04-28T02:59:00;100676.38;;;7.78;52.79
69402;BME280;56589;51.992;5.924;2023-04-28T03:01:26;100664.16;;;7.79;52.74
69402;BME280;56589;51.992;5.924;2023-04-28T03:03:52;100652.69;;;7.81;52.67
69402;BME280;56589;51.992;5.924;2023-04-28T03:06:20;100639.72;;;7.80;52.69
69402;BME280;56589;51.992;5.924;2023-04-28T03:08:46;100638.88;;;7.79;52.57
69402;BME280;56589;51.992;5.924;2023-04-28T03:11:12;100638.88;;;7.79;52.44
69402;BME280;56589;51.992;5.924;2023-04-28T03:13:38;100639.63;;;7.81;52.83
69402;BME280;56589;51.992;5.924;2023-04-28T03:16:05;100642.13;;;7.83;52.57
69402;BME280;56589;51.992;5.924;2023-04-28T03:18:31;100638.63;;;7.84;52.56
69402;BME280;56589;51.992;5.924;2023-04-28T03:20:57;100627.28;;;7.83;52.72
69402;BME280;56589;51.992;5.924;2023-04-28T03:23:25;100627.56;;;7.79;52.89
69402;BME280;56589;51.992;5.924;2023-04-28T03:25:51;100617.97;;;7.79;52.83
69402;BME280;56589;51.992;5.924;2023-04-28T03:28:17;100618.81;;;7.80;52.76
69402;BME280;56589;51.992;5.924;2023-04-28T03:30:43;100618.63;;;7.83;52.92
69402;BME280;56589;51.992;5.924;2023-04-28T03:33:09;100616.00;;;7.83;53.13
69402;BME280;56589;51.992;5.924;2023-04-28T03:35:34;100616.09;;;7.81;53.08
69402;BME280;56589;51.992;5.924;2023-04-28T03:38:00;100610.97;;;7.80;53.06
69402;BME280;56589;51.992;5.924;2023-04-28T03:40:29;100603.13;;;7.80;53.42
69402;BME280;56589;51.992;5.924;2023-04-28T03:42:55;100608.44;;;7.78;53.37
69402;BME280;56589;51.992;5.924;2023-04-28T03:45:21;100610.97;;;7.80;53.24
69402;BME280;56589;51.992;5.924;2023-04-28T03:47:46;100608.16;;;7.83;53.45
69402;BME280;56589;51.992;5.924;2023-04-28T03:50:12;100615.84;;;7.86;53.48
69402;BME280;56589;51.992;5.924;2023-04-28T03:52:38;100618.38;;;7.87;53.46
69402;BME280;56589;51.992;5.924;2023-04-28T03:55:05;100613.88;;;7.89;53.10
69402;BME280;56589;51.992;5.924;2023-04-28T03:57:34;100608.59;;;7.91;53.41
69402;BME280;56589;51.992;5.924;2023-04-28T04:00:00;100612.91;;;7.92;53.40
69402;BME280;56589;51.992;5.924;2023-04-28T04:02:25;100601.69;;;7.90;53.21
69402;BME280;56589;51.992;5.924;2023-04-28T04:04:51;100599.06;;;7.90;53.69
69402;BME280;56589;51.992;5.924;2023-04-28T04:07:17;100596.47;;;7.90;53.51
69402;BME280;56589;51.992;5.924;2023-04-28T04:09:43;100603.38;;;7.91;53.63
69402;BME280;56589;51.992;5.924;2023-04-28T04:12:09;100600.75;;;7.91;54.09
69402;BME280;56589;51.992;5.924;2023-04-28T04:14:37;100594.59;;;7.92;53.90
69402;BME280;56589;51.992;5.924;2023-04-28T04:17:03;100593.66;;;7.93;53.85
69402;BME280;56589;51.992;5.924;2023-04-28T04:19:29;100585.81;;;7.93;53.75
69402;BME280;56589;51.992;5.924;2023-04-28T04:21:55;100585.81;;;7.93;54.12
69402;BME280;56589;51.992;5.924;2023-04-28T04:24:21;100590.13;;;7.94;54.49
69402;BME280;56589;51.992;5.924;2023-04-28T04:26:47;100588.44;;;7.93;54.04
69402;BME280;56589;51.992;5.924;2023-04-28T04:29:13;100587.50;;;7.94;54.25
69402;BME280;56589;51.992;5.924;2023-04-28T04:31:41;100592.56;;;7.97;54.88
69402;BME280;56589;51.992;5.924;2023-04-28T04:34:07;100583.94;;;7.95;54.93
69402;BME280;56589;51.992;5.924;2023-04-28T04:36:33;100579.56;;;7.96;54.66
69402;BME280;56589;51.992;5.924;2023-04-28T04:38:59;100582.03;;;7.99;54.79
69402;BME280;56589;51.992;5.924;2023-04-28T04:41:25;100571.38;;;8.02;55.09
69402;BME280;56589;51.992;5.924;2023-04-28T04:43:51;100568.75;;;8.02;55.43
69402;BME280;56589;51.992;5.924;2023-04-28T04:46:16;100561.00;;;8.00;55.44
69402;BME280;56589;51.992;5.924;2023-04-28T04:48:45;100565.41;;;8.00;55.41
69402;BME280;56589;51.992;5.924;2023-04-28T04:51:11;100562.88;;;7.98;55.45
69402;BME280;56589;51.992;5.924;2023-04-28T04:53:36;100561.00;;;8.00;55.65
69402;BME280;56589;51.992;5.924;2023-04-28T04:56:02;100560.06;;;8.01;55.73
69402;BME280;56589;51.992;5.924;2023-04-28T04:58:29;100558.13;;;8.05;55.73
69402;BME280;56589;51.992;5.924;2023-04-28T05:00:55;100553.66;;;8.07;55.76
69402;BME280;56589;51.992;5.924;2023-04-28T05:03:21;100553.50;;;8.10;56.28
69402;BME280;56589;51.992;5.924;2023-04-28T05:05:50;100557.88;;;8.09;56.33
69402;BME280;56589;51.992;5.924;2023-04-28T05:08:16;100552.56;;;8.11;56.18
69402;BME280;56589;51.992;5.924;2023-04-28T05:10:42;100547.22;;;8.12;56.71
69402;BME280;56589;51.992;5.924;2023-04-28T05:13:08;100542.19;;;8.09;56.86
69402;BME280;56589;51.992;5.924;2023-04-28T05:15:33;100534.91;;;8.14;57.00
69402;BME280;56589;51.992;5.924;2023-04-28T05:17:59;100534.75;;;8.18;57.10
69402;BME280;56589;51.992;5.924;2023-04-28T05:20:25;100527.56;;;8.21;57.25
69402;BME280;56589;51.992;5.924;2023-04-28T05:22:54;100528.22;;;8.25;57.57
69402;BME280;56589;51.992;5.924;2023-04-28T05:25:19;100531.50;;;8.28;57.71
69402;BME280;56589;51.992;5.924;2023-04-28T05:27:45;100535.34;;;8.37;57.60
69402;BME280;56589;51.992;5.924;2023-04-28T05:30:11;100539.38;;;8.42;57.85
69402;BME280;56589;51.992;5.924;2023-04-28T05:32:38;100531.25;;;8.47;57.83
69402;BME280;56589;51.992;5.924;2023-04-28T05:35:04;100519.03;;;8.48;58.57
69402;BME280;56589;51.992;5.924;2023-04-28T05:37:30;100521.53;;;8.49;58.22
69402;BME280;56589;51.992;5.924;2023-04-28T05:39:58;100536.22;;;8.52;58.77
69402;BME280;56589;51.992;5.924;2023-04-28T05:42:24;100533.31;;;8.56;58.49
69402;BME280;56589;51.992;5.924;2023-04-28T05:44:50;100531.09;;;8.64;58.76
69402;BME280;56589;51.992;5.924;2023-04-28T05:47:16;100527.34;;;8.68;59.13
69402;BME280;56589;51.992;5.924;2023-04-28T05:49:42;100518.56;;;8.69;59.09
69402;BME280;56589;51.992;5.924;2023-04-28T05:52:08;100528.00;;;8.72;59.64
69402;BME280;56589;51.992;5.924;2023-04-28T05:54:34;100523.63;;;8.73;59.72
69402;BME280;56589;51.992;5.924;2023-04-28T05:57:02;100517.81;;;8.67;60.29
69402;BME280;56589;51.992;5.924;2023-04-28T05:59:28;100525.88;;;8.64;60.18
69402;BME280;56589;51.992;5.924;2023-04-28T06:01:54;100533.53;;;8.67;60.63
69402;BME280;56589;51.992;5.924;2023-04-28T06:04:20;100528.97;;;8.71;60.67
69402;BME280;56589;51.992;5.924;2023-04-28T06:06:46;100522.50;;;8.77;61.26
69402;BME280;56589;51.992;5.924;2023-04-28T06:09:12;100529.22;;;8.81;61.14
69402;BME280;56589;51.992;5.924;2023-04-28T06:11:37;100548.13;;;8.86;61.24
69402;BME280;56589;51.992;5.924;2023-04-28T06:14:06;100555.50;;;8.93;61.52
69402;BME280;56589;51.992;5.924;2023-04-28T06:16:32;100552.72;;;8.96;61.33
69402;BME280;56589;51.992;5.924;2023-04-28T06:18:57;100557.28;;;8.93;62.06
69402;BME280;56589;51.992;5.924;2023-04-28T06:21:23;100540.38;;;8.84;62.84
69402;BME280;56589;51.992;5.924;2023-04-28T06:23:49;100539.59;;;8.68;63.75
69402;BME280;56589;51.992;5.924;2023-04-28T06:26:15;100539.69;;;8.52;64.43
69402;BME280;56589;51.992;5.924;2023-04-28T06:28:41;100534.34;;;8.39;65.13
69402;BME280;56589;51.992;5.924;2023-04-28T06:31:10;100529.16;;;8.24;66.83
69402;BME280;56589;51.992;5.924;2023-04-28T06:33:35;100523.97;;;8.08;67.16
69402;BME280;56589;51.992;5.924;2023-04-28T06:36:02;100514.63;;;8.04;68.43
69402;BME280;56589;51.992;5.924;2023-04-28T06:38:28;100523.31;;;8.04;68.77
69402;BME280;56589;51.992;5.924;2023-04-28T06:40:54;100520.59;;;8.06;69.28
69402;BME280;56589;51.992;5.924;2023-04-28T06:43:20;100525.00;;;8.05;69.68
69402;BME280;56589;51.992;5.924;2023-04-28T06:45:46;100521.53;;;8.05;70.11
69402;BME280;56589;51.992;5.924;2023-04-28T06:48:14;100512.75;;;8.06;70.37
69402;BME280;56589;51.992;5.924;2023-04-28T06:50:40;100522.69;;;8.15;71.35
69402;BME280;56589;51.992;5.924;2023-04-28T06:53:06;100524.84;;;8.23;71.03
69402;BME280;56589;51.992;5.924;2023-04-28T06:55:33;100524.41;;;8.30;71.43
69402;BME280;56589;51.992;5.924;2023-04-28T06:57:59;100518.66;;;8.39;71.85
69402;BME280;56589;51.992;5.924;2023-04-28T07:00:25;100516.13;;;8.52;72.58
69402;BME280;56589;51.992;5.924;2023-04-28T07:02:50;100516.88;;;8.68;72.39
69402;BME280;56589;51.992;5.924;2023-04-28T07:05:19;100510.72;;;8.84;72.95
69402;BME280;56589;51.992;5.924;2023-04-28T07:07:45;100512.69;;;8.94;73.32
69402;BME280;56589;51.992;5.924;2023-04-28T07:10:12;100512.56;;;9.10;73.45
69402;BME280;56589;51.992;5.924;2023-04-28T07:12:38;100512.84;;;9.20;73.05
69402;BME280;56589;51.992;5.924;2023-04-28T07:15:05;100510.22;;;9.34;73.77
69402;BME280;56589;51.992;5.924;2023-04-28T07:17:32;100510.09;;;9.50;73.57
69402;BME280;56589;51.992;5.924;2023-04-28T07:19:58;100514.44;;;9.64;73.42
69402;BME280;56589;51.992;5.924;2023-04-28T07:22:26;100513.94;;;9.71;72.67
69402;BME280;56589;51.992;5.924;2023-04-28T07:24:52;100514.88;;;9.70;73.01
69402;BME280;56589;51.992;5.924;2023-04-28T07:27:18;100513.94;;;9.71;73.19
69402;BME280;56589;51.992;5.924;2023-04-28T07:29:44;100510.53;;;9.84;72.94
69402;BME280;56589;51.992;5.924;2023-04-28T07:32:09;100504.16;;;9.88;73.06
69402;BME280;56589;51.992;5.924;2023-04-28T07:34:36;100507.91;;;9.84;73.78
69402;BME280;56589;51.992;5.924;2023-04-28T07:37:02;100512.31;;;9.83;73.79
69402;BME280;56589;51.992;5.924;2023-04-28T07:39:33;100500.59;;;9.89;73.83
69402;BME280;56589;51.992;5.924;2023-04-28T07:41:59;100498.50;;;9.94;73.74
69402;BME280;56589;51.992;5.924;2023-04-28T07:44:25;100503.13;;;10.03;74.33
69402;BME280;56589;51.992;5.924;2023-04-28T07:46:50;100506.81;;;10.13;74.09
69402;BME280;56589;51.992;5.924;2023-04-28T07:49:17;100508.41;;;10.28;73.80
69402;BME280;56589;51.992;5.924;2023-04-28T07:51:43;100507.09;;;10.36;73.50
69402;BME280;56589;51.992;5.924;2023-04-28T07:54:09;100504.25;;;10.39;73.84
69402;BME280;56589;51.992;5.924;2023-04-28T07:56:37;100504.03;;;10.42;73.94
69402;BME280;56589;51.992;5.924;2023-04-28T07:59:03;100496.66;;;10.47;73.62
69402;BME280;56589;51.992;5.924;2023-04-28T08:01:29;100497.09;;;10.53;73.75
69402;BME280;56589;51.992;5.924;2023-04-28T08:03:55;100499.41;;;10.58;73.61
69402;BME280;56589;51.992;5.924;2023-04-28T08:06:21;100492.38;;;10.58;73.71
69402;BME280;56589;51.992;5.924;2023-04-28T08:08:47;100496.25;;;10.66;73.90
69402;BME280;56589;51.992;5.924;2023-04-28T08:11:13;100500.66;;;10.78;74.17
69402;BME280;56589;51.992;5.924;2023-04-28T08:13:41;100501.97;;;10.85;73.32
69402;BME280;56589;51.992;5.924;2023-04-28T08:16:07;100492.91;;;10.89;73.92
69402;BME280;56589;51.992;5.924;2023-04-28T08:18:33;100486.69;;;10.90;73.55
69402;BME280;56589;51.992;5.924;2023-04-28T08:20:59;100481.25;;;10.93;73.91
69402;BME280;56589;51.992;5.924;2023-04-28T08:23:24;100489.13;;;10.93;73.46
69402;BME280;56589;51.992;5.924;2023-04-28T08:25:50;100492.34;;;10.97;74.03
69402;BME280;56589;51.992;5.924;2023-04-28T08:28:16;100481.41;;;11.03;73.83
69402;BME280;56589;51.992;5.924;2023-04-28T08:30:44;100480.78;;;11.12;73.71
69402;BME280;56589;51.992;5.924;2023-04-28T08:33:10;100485.88;;;11.26;73.71
69402;BME280;56589;51.992;5.924;2023-04-28T08:35:36;100487.41;;;11.42;74.22
69402;BME280;56589;51.992;5.924;2023-04-28T08:38:03;100499.81;;;11.63;73.68
69402;BME280;56589;51.992;5.924;2023-04-28T08:40:29;100487.13;;;11.81;73.39
69402;BME280;56589;51.992;5.924;2023-04-28T08:42:55;100490.13;;;11.88;72.99
69402;BME280;56589;51.992;5.924;2023-04-28T08:45:23;100486.00;;;11.97;73.08
69402;BME280;56589;51.992;5.924;2023-04-28T08:47:53;100492.22;;;12.07;72.57
69402;BME280;56589;51.992;5.924;2023-04-28T08:50:21;100494.16;;;12.05;72.29
69402;BME280;56589;51.992;5.924;2023-04-28T08:52:47;100495.22;;;12.02;72.03
69402;BME280;56589;51.992;5.924;2023-04-28T08:55:17;100496.28;;;12.00;72.50
69402;BME280;56589;51.992;5.924;2023-04-28T08:57:44;100497.09;;;12.00;72.22
69402;BME280;56589;51.992;5.924;2023-04-28T09:00:14;100494.38;;;12.02;72.62
69402;BME280;56589;51.992;5.924;2023-04-28T09:02:40;100501.47;;;12.12;72.64
69402;BME280;56589;51.992;5.924;2023-04-28T09:05:10;100494.91;;;12.18;72.18
69402;BME280;56589;51.992;5.924;2023-04-28T09:07:37;100496.94;;;12.14;72.01
69402;BME280;56589;51.992;5.924;2023-04-28T09:10:19;100490.34;;;12.09;72.72
69402;BME280;56589;51.992;5.924;2023-04-28T09:12:47;100494.16;;;12.05;72.64
69402;BME280;56589;51.992;5.924;2023-04-28T09:15:25;100497.50;;;12.07;72.42
69402;BME280;56589;51.992;5.924;2023-04-28T09:17:55;100492.00;;;12.10;72.71
69402;BME280;56589;51.992;5.924;2023-04-28T09:20:26;100490.09;;;12.12;72.51
69402;BME280;56589;51.992;5.924;2023-04-28T09:22:54;100492.25;;;12.18;72.57
69402;BME280;56589;51.992;5.924;2023-04-28T09:25:22;100479.84;;;12.20;72.90
69402;BME280;56589;51.992;5.924;2023-04-28T09:27:48;100477.72;;;12.25;72.92
69402;BME280;56589;51.992;5.924;2023-04-28T09:30:15;100483.97;;;12.35;73.14
69402;BME280;56589;51.992;5.924;2023-04-28T09:32:41;100488.53;;;12.44;72.84
69402;BME280;56589;51.992;5.924;2023-04-28T09:35:07;100484.81;;;12.47;72.72
69402;BME280;56589;51.992;5.924;2023-04-28T09:37:36;100478.09;;;12.43;72.88
69402;BME280;56589;51.992;5.924;2023-04-28T09:40:06;100474.16;;;12.37;73.33
69402;BME280;56589;51.992;5.924;2023-04-28T09:42:34;100471.63;;;12.36;73.62
69402;BME280;56589;51.992;5.924;2023-04-28T09:45:04;100470.69;;;12.37;73.20
69402;BME280;56589;51.992;5.924;2023-04-28T09:47:34;100468.03;;;12.37;73.61
69402;BME280;56589;51.992;5.924;2023-04-28T09:50:02;100467.00;;;12.39;73.19
69402;BME280;56589;51.992;5.924;2023-04-28T09:52:29;100470.22;;;12.43;73.44
69402;BME280;56589;51.992;5.924;2023-04-28T09:55:01;100470.94;;;12.45;73.33
69402;BME280;56589;51.992;5.924;2023-04-28T09:57:29;100466.72;;;12.42;73.21
69402;BME280;56589;51.992;5.924;2023-04-28T09:59:56;100474.63;;;12.42;72.94
69402;BME280;56589;51.992;5.924;2023-04-28T10:02:24;100469.50;;;12.41;73.04
69402;BME280;56589;51.992;5.924;2023-04-28T10:04:51;100471.28;;;12.40;72.98
69402;BME280;56589;51.992;5.924;2023-04-28T10:07:18;100474.75;;;12.41;73.37
69402;BME280;56589;51.992;5.924;2023-04-28T10:09:46;100469.63;;;12.39;73.34
69402;BME280;56589;51.992;5.924;2023-04-28T10:12:15;100460.41;;;12.45;73.86
69402;BME280;56589;51.992;5.924;2023-04-28T10:14:42;100463.28;;;12.53;74.06
69402;BME280;56589;51.992;5.924;2023-04-28T10:17:09;100458.25;;;12.61;73.41
69402;BME280;56589;51.992;5.924;2023-04-28T10:19:35;100452.50;;;12.67;73.48
69402;BME280;56589;51.992;5.924;2023-04-28T10:22:11;100453.69;;;12.75;73.89
69402;BME280;56589;51.992;5.924;2023-04-28T10:25:02;100454.66;;;12.74;73.49
69402;BME280;56589;51.992;5.924;2023-04-28T10:27:44;100452.03;;;12.74;73.78
69402;BME280;56589;51.992;5.924;2023-04-28T10:30:14;100455.41;;;12.76;73.94
69402;BME280;56589;51.992;5.924;2023-04-28T10:32:41;100459.22;;;12.83;73.99
69402;BME280;56589;51.992;5.924;2023-04-28T10:38:09;100454.03;;;12.92;74.06
69402;BME280;56589;51.992;5.924;2023-04-28T10:40:37;100457.50;;;12.93;74.33
69402;BME280;56589;51.992;5.924;2023-04-28T10:43:07;100453.13;;;12.93;74.31
69402;BME280;56589;51.992;5.924;2023-04-28T10:45:59;100452.97;;;12.95;74.90
69402;BME280;56589;51.992;5.924;2023-04-28T10:48:51;100450.09;;;12.98;75.18
69402;BME280;56589;51.992;5.924;2023-04-28T10:51:27;100452.38;;;13.03;75.54
69402;BME280;56589;51.992;5.924;2023-04-28T10:54:15;100451.88;;;13.09;75.98
69402;BME280;56589;51.992;5.924;2023-04-28T10:59:47;100452.34;;;13.14;75.46
69402;BME280;56589;51.992;5.924;2023-04-28T11:02:38;100457.50;;;13.15;75.94
69402;BME280;56589;51.992;5.924;2023-04-28T11:05:15;100450.19;;;13.19;76.05
69402;BME280;56589;51.992;5.924;2023-04-28T11:11:16;100454.72;;;13.28;76.76
69402;BME280;56589;51.992;5.924;2023-04-28T11:13:46;100449.78;;;13.35;77.01
69402;BME280;56589;51.992;5.924;2023-04-28T11:16:17;100451.31;;;13.48;76.70
69402;BME280;56589;51.992;5.924;2023-04-28T11:18:52;100444.47;;;13.57;76.49
69402;BME280;56589;51.992;5.924;2023-04-28T11:21:20;100452.94;;;13.61;76.67
69402;BME280;56589;51.992;5.924;2023-04-28T11:23:47;100452.72;;;13.64;76.68
69402;BME280;56589;51.992;5.924;2023-04-28T11:26:14;100452.34;;;13.68;77.19
69402;BME280;56589;51.992;5.924;2023-04-28T11:28:47;100456.00;;;13.77;77.41
69402;BME280;56589;51.992;5.924;2023-04-28T11:31:18;100452.72;;;13.85;76.87
69402;BME280;56589;51.992;5.924;2023-04-28T11:33:46;100449.47;;;13.92;77.37
69402;BME280;56589;51.992;5.924;2023-04-28T11:36:37;100456.38;;;14.04;77.30
69402;BME280;56589;51.992;5.924;2023-04-28T11:39:05;100453.31;;;14.09;76.70
69402;BME280;56589;51.992;5.924;2023-04-28T11:41:33;100451.78;;;14.07;76.43
69402;BME280;56589;51.992;5.924;2023-04-28T11:43:59;100463.00;;;13.99;76.85
69402;BME280;56589;51.992;5.924;2023-04-28T11:46:27;100456.41;;;13.93;76.53
69402;BME280;56589;51.992;5.924;2023-04-28T11:48:59;100458.47;;;13.90;76.96
69402;BME280;56589;51.992;5.924;2023-04-28T11:51:29;100465.56;;;13.89;77.38
69402;BME280;56589;51.992;5.924;2023-04-28T11:53:56;100457.06;;;13.86;76.89
69402;BME280;56589;51.992;5.924;2023-04-28T11:56:22;100457.16;;;13.84;77.28
69402;BME280;56589;51.992;5.924;2023-04-28T11:58:58;100459.25;;;13.81;77.27
69402;BME280;56589;51.992;5.924;2023-04-28T12:01:31;100455.38;;;13.85;78.23
69402;BME280;56589;51.992;5.924;2023-04-28T12:03:57;100464.81;;;13.98;77.85
69402;BME280;56589;51.992;5.924;2023-04-28T12:06:23;100454.28;;;14.08;77.98
69402;BME280;56589;51.992;5.924;2023-04-28T12:08:49;100454.59;;;14.15;77.57
69402;BME280;56589;51.992;5.924;2023-04-28T12:11:15;100452.81;;;14.15;77.02
69402;BME280;56589;51.992;5.924;2023-04-28T12:13:41;100458.09;;;14.15;77.58
69402;BME280;56589;51.992;5.924;2023-04-28T12:16:07;100450.06;;;14.17;77.10
69402;BME280;56589;51.992;5.924;2023-04-28T12:18:36;100443.22;;;14.14;76.90
69402;BME280;56589;51.992;5.924;2023-04-28T12:21:02;100453.97;;;14.01;77.28
69402;BME280;56589;51.992;5.924;2023-04-28T12:23:29;100449.91;;;13.97;77.70
69402;BME280;56589;51.992;5.924;2023-04-28T12:25:55;100454.25;;;13.98;77.15
69402;BME280;56589;51.992;5.924;2023-04-28T12:28:21;100463.81;;;13.99;77.39
69402;BME280;56589;51.992;5.924;2023-04-28T12:30:47;100456.41;;;13.93;77.72
69402;BME280;56589;51.992;5.924;2023-04-28T12:33:22;100459.72;;;13.86;77.38
69402;BME280;56589;51.992;5.924;2023-04-28T12:35:51;100458.41;;;13.80;77.80
69402;BME280;56589;51.992;5.924;2023-04-28T12:38:17;100460.72;;;13.73;77.94
69402;BME280;56589;51.992;5.924;2023-04-28T12:40:43;100459.16;;;13.71;77.84
69402;BME280;56589;51.992;5.924;2023-04-28T12:43:09;100460.72;;;13.73;78.00
69402;BME280;56589;51.992;5.924;2023-04-28T12:45:34;100458.50;;;13.78;78.32
69402;BME280;56589;51.992;5.924;2023-04-28T12:48:00;100462.59;;;13.83;78.16
69402;BME280;56589;51.992;5.924;2023-04-28T12:50:26;100459.72;;;13.86;77.93
69402;BME280;56589;51.992;5.924;2023-04-28T12:52:54;100457.78;;;13.88;78.50
69402;BME280;56589;51.992;5.924;2023-04-28T12:55:20;100462.66;;;13.92;78.55
69402;BME280;56589;51.992;5.924;2023-04-28T12:57:46;100458.94;;;13.95;78.16
69402;BME280;56589;51.992;5.924;2023-04-28T13:00:13;100462.25;;;13.97;78.28
69402;BME280;56589;51.992;5.924;2023-04-28T13:02:39;100470.09;;;13.98;78.43
69402;BME280;56589;51.992;5.924;2023-04-28T13:05:05;100469.09;;;13.99;78.51